sensor_id;sensor_type;location;lat;lon;timestamp;pressure;altitude;pressure_sealevel;temperature;humidity
40285;BME280;25997;50.214;19.354;2023-12-20T00:01:44;97227.28;;;9.15;30.17
40285;BME280;25997;50.214;19.354;2023-12-20T00:04:46;97227.03;;;9.03;30.52
40285;BME280;25997;50.214;19.354;2023-12-20T00:07:50;97231.31;;;8.98;30.35
40285;BME280;25997;50.214;19.354;2023-12-20T00:10:52;97222.63;;;9.00;30.39
40285;BME280;25997;50.214;19.354;2023-12-20T00:13:55;97219.66;;;8.84;30.68
40285;BME280;25997;50.214;19.354;2023-12-20T00:16:58;97208.94;;;9.15;30.41
40285;BME280;25997;50.214;19.354;2023-12-20T00:20:01;97198.72;;;8.84;30.52
40285;BME280;25997;50.214;19.354;2023-12-20T00:23:05;97200.91;;;8.63;30.65
40285;BME280;25997;50.214;19.354;2023-12-20T00:26:08;97178.88;;;8.51;30.62
40285;BME280;25997;50.214;19.354;2023-12-20T00:29:11;97214.91;;;8.65;30.67
40285;BME280;25997;50.214;19.354;2023-12-20T00:32:13;97191.53;;;8.72;30.34
40285;BME280;25997;50.214;19.354;2023-12-20T00:35:16;97187.34;;;8.82;30.38
40285;BME280;25997;50.214;19.354;2023-12-20T00:38:20;97208.66;;;8.56;30.31
40285;BME280;25997;50.214;19.354;2023-12-20T00:41:23;97204.44;;;8.65;30.29
40285;BME280;25997;50.214;19.354;2023-12-20T00:44:26;97202.28;;;8.87;30.11
40285;BME280;25997;50.214;19.354;2023-12-20T00:47:28;97203.34;;;8.53;30.45
40285;BME280;25997;50.214;19.354;2023-12-20T00:50:31;97175.19;;;8.40;30.49
40285;BME280;25997;50.214;19.354;2023-12-20T00:53:34;97185.69;;;8.42;30.58
40285;BME280;25997;50.214;19.354;2023-12-20T00:56:37;97180.16;;;8.70;30.27
40285;BME280;25997;50.214;19.354;2023-12-20T00:59:39;97189.91;;;8.80;29.96
40285;BME280;25997;50.214;19.354;2023-12-20T01:02:42;97176.91;;;8.83;29.97
40285;BME280;25997;50.214;19.354;2023-12-20T01:05:44;97154.91;;;8.74;29.87
40285;BME280;25997;50.214;19.354;2023-12-20T01:08:48;97181.88;;;8.71;30.08
40285;BME280;25997;50.214;19.354;2023-12-20T01:11:50;97179.25;;;8.68;29.96
40285;BME280;25997;50.214;19.354;2023-12-20T01:14:52;97160.50;;;8.90;29.70
40285;BME280;25997;50.214;19.354;2023-12-20T01:17:55;97174.09;;;8.74;29.53
40285;BME280;25997;50.214;19.354;2023-12-20T01:21:01;97140.91;;;8.72;29.51
40285;BME280;25997;50.214;19.354;2023-12-20T01:24:06;97142.50;;;8.64;29.47
40285;BME280;25997;50.214;19.354;2023-12-20T01:27:08;97097.38;;;8.75;29.18
40285;BME280;25997;50.214;19.354;2023-12-20T01:30:11;97126.56;;;8.98;29.13
40285;BME280;25997;50.214;19.354;2023-12-20T01:33:14;97118.56;;;8.89;28.97
40285;BME280;25997;50.214;19.354;2023-12-20T01:36:16;97096.72;;;8.88;29.06
40285;BME280;25997;50.214;19.354;2023-12-20T01:39:20;97106.06;;;8.74;29.31
40285;BME280;25997;50.214;19.354;2023-12-20T01:42:22;97094.44;;;8.58;29.26
40285;BME280;25997;50.214;19.354;2023-12-20T01:45:25;97097.94;;;8.58;29.11
40285;BME280;25997;50.214;19.354;2023-12-20T01:48:28;97095.69;;;8.80;28.75
40285;BME280;25997;50.214;19.354;2023-12-20T01:51:30;97085.72;;;9.06;28.91
40285;BME280;25997;50.214;19.354;2023-12-20T01:54:34;97088.56;;;8.72;28.65
40285;BME280;25997;50.214;19.354;2023-12-20T01:57:37;97124.78;;;8.94;28.79
40285;BME280;25997;50.214;19.354;2023-12-20T02:00:39;97132.78;;;9.03;28.84
40285;BME280;25997;50.214;19.354;2023-12-20T02:03:42;97108.38;;;9.04;28.98
40285;BME280;25997;50.214;19.354;2023-12-20T02:06:45;97114.28;;;8.91;28.66
40285;BME280;25997;50.214;19.354;2023-12-20T02:09:50;97116.56;;;8.76;29.31
40285;BME280;25997;50.214;19.354;2023-12-20T02:12:52;97109.63;;;8.78;29.23
40285;BME280;25997;50.214;19.354;2023-12-20T02:15:55;97076.28;;;8.68;29.65
40285;BME280;25997;50.214;19.354;2023-12-20T02:18:57;97090.09;;;8.58;30.37
40285;BME280;25997;50.214;19.354;2023-12-20T02:22:08;97085.78;;;8.63;29.88
40285;BME280;25997;50.214;19.354;2023-12-20T02:25:11;97087.06;;;8.36;29.95
40285;BME280;25997;50.214;19.354;2023-12-20T02:28:13;97085.78;;;8.61;29.73
40285;BME280;25997;50.214;19.354;2023-12-20T02:31:15;97116.91;;;8.47;29.97
40285;BME280;25997;50.214;19.354;2023-12-20T02:34:18;97093.06;;;8.77;29.67
40285;BME280;25997;50.214;19.354;2023-12-20T02:37:22;97075.53;;;8.73;29.55
40285;BME280;25997;50.214;19.354;2023-12-20T02:40:24;97080.97;;;8.87;29.58
40285;BME280;25997;50.214;19.354;2023-12-20T02:43:26;97094.25;;;8.96;29.54
40285;BME280;25997;50.214;19.354;2023-12-20T02:46:29;97083.88;;;9.00;29.49
40285;BME280;25997;50.214;19.354;2023-12-20T02:49:31;97086.63;;;8.60;29.83
40285;BME280;25997;50.214;19.354;2023-12-20T02:52:35;97081.78;;;8.81;29.73
40285;BME280;25997;50.214;19.354;2023-12-20T02:55:37;97107.78;;;8.72;29.33
40285;BME280;25997;50.214;19.354;2023-12-20T02:58:40;97079.16;;;8.81;29.44
40285;BME280;25997;50.214;19.354;2023-12-20T03:01:44;97074.84;;;8.35;30.02
40285;BME280;25997;50.214;19.354;2023-12-20T03:04:46;97074.91;;;8.40;30.13
40285;BME280;25997;50.214;19.354;2023-12-20T03:07:50;97063.03;;;8.11;31.07
40285;BME280;25997;50.214;19.354;2023-12-20T03:10:53;97087.09;;;7.96;31.77
40285;BME280;25997;50.214;19.354;2023-12-20T03:13:55;97084.84;;;7.71;32.09
40285;BME280;25997;50.214;19.354;2023-12-20T03:16:57;97063.53;;;7.93;32.18
40285;BME280;25997;50.214;19.354;2023-12-20T03:20:01;97055.41;;;7.79;32.39
40285;BME280;25997;50.214;19.354;2023-12-20T03:23:05;97059.94;;;7.88;32.37
40285;BME280;25997;50.214;19.354;2023-12-20T03:26:08;97058.56;;;7.65;33.53
40285;BME280;25997;50.214;19.354;2023-12-20T03:29:11;97067.75;;;7.48;34.35
40285;BME280;25997;50.214;19.354;2023-12-20T03:32:13;97071.09;;;7.42;35.26
40285;BME280;25997;50.214;19.354;2023-12-20T03:35:16;97075.19;;;7.31;34.88
40285;BME280;25997;50.214;19.354;2023-12-20T03:38:20;97073.81;;;7.09;35.23
40285;BME280;25997;50.214;19.354;2023-12-20T03:41:22;97077.53;;;6.83;36.65
40285;BME280;25997;50.214;19.354;2023-12-20T03:44:25;97069.34;;;6.68;37.33
40285;BME280;25997;50.214;19.354;2023-12-20T03:47:27;97067.81;;;6.44;38.89
40285;BME280;25997;50.214;19.354;2023-12-20T03:50:29;97064.94;;;6.33;39.04
40285;BME280;25997;50.214;19.354;2023-12-20T03:53:33;97074.63;;;6.38;38.78
40285;BME280;25997;50.214;19.354;2023-12-20T03:56:35;97095.03;;;6.23;39.77
40285;BME280;25997;50.214;19.354;2023-12-20T03:59:38;97086.88;;;6.11;41.00
40285;BME280;25997;50.214;19.354;2023-12-20T04:02:41;97087.91;;;5.87;42.31
40285;BME280;25997;50.214;19.354;2023-12-20T04:05:43;97095.13;;;5.67;43.27
40285;BME280;25997;50.214;19.354;2023-12-20T04:08:47;97100.75;;;5.51;45.36
40285;BME280;25997;50.214;19.354;2023-12-20T04:11:49;97100.13;;;5.31;45.90
40285;BME280;25997;50.214;19.354;2023-12-20T04:14:52;97090.63;;;5.33;46.70
40285;BME280;25997;50.214;19.354;2023-12-20T04:17:54;97091.75;;;5.40;45.12
40285;BME280;25997;50.214;19.354;2023-12-20T04:20:57;97102.69;;;5.30;47.43
40285;BME280;25997;50.214;19.354;2023-12-20T04:24:00;97096.69;;;5.04;47.80
40285;BME280;25997;50.214;19.354;2023-12-20T04:27:03;97094.78;;;5.00;49.53
40285;BME280;25997;50.214;19.354;2023-12-20T04:30:07;97100.50;;;4.88;49.89
40285;BME280;25997;50.214;19.354;2023-12-20T04:33:10;97108.63;;;4.72;50.89
40285;BME280;25997;50.214;19.354;2023-12-20T04:36:12;97111.38;;;4.77;51.56
40285;BME280;25997;50.214;19.354;2023-12-20T04:39:16;97110.63;;;4.81;51.43
40285;BME280;25997;50.214;19.354;2023-12-20T04:42:18;97103.28;;;4.69;51.21
40285;BME280;25997;50.214;19.354;2023-12-20T04:45:21;97103.66;;;4.55;52.94
40285;BME280;25997;50.214;19.354;2023-12-20T04:48:24;97100.22;;;4.56;53.37
40285;BME280;25997;50.214;19.354;2023-12-20T04:51:27;97098.81;;;4.65;51.88
40285;BME280;25997;50.214;19.354;2023-12-20T04:54:31;97092.78;;;4.66;53.26
40285;BME280;25997;50.214;19.354;2023-12-20T04:57:33;97092.41;;;4.56;53.02
40285;BME280;25997;50.214;19.354;2023-12-20T05:00:35;97089.25;;;4.39;54.47
40285;BME280;25997;50.214;19.354;2023-12-20T05:03:38;97076.31;;;4.66;52.50
40285;BME280;25997;50.214;19.354;2023-12-20T05:06:40;97089.16;;;4.61;53.71
40285;BME280;25997;50.214;19.354;2023-12-20T05:09:44;97078.31;;;4.73;52.73
40285;BME280;25997;50.214;19.354;2023-12-20T05:12:46;97072.94;;;4.68;52.80
40285;BME280;25997;50.214;19.354;2023-12-20T05:15:49;97083.09;;;4.62;53.53
40285;BME280;25997;50.214;19.354;2023-12-20T05:18:51;97070.81;;;4.57;54.27
40285;BME280;25997;50.214;19.354;2023-12-20T05:21:54;97076.06;;;4.33;55.44
40285;BME280;25997;50.214;19.354;2023-12-20T05:24:58;97068.47;;;4.39;55.93
40285;BME280;25997;50.214;19.354;2023-12-20T05:28:00;97065.25;;;4.21;56.79
40285;BME280;25997;50.214;19.354;2023-12-20T05:31:03;97071.47;;;4.26;55.69
40285;BME280;25997;50.214;19.354;2023-12-20T05:34:05;97075.38;;;4.39;55.20
40285;BME280;25997;50.214;19.354;2023-12-20T05:37:07;97073.63;;;4.38;55.64
40285;BME280;25997;50.214;19.354;2023-12-20T05:40:11;97068.03;;;4.27;55.89
40285;BME280;25997;50.214;19.354;2023-12-20T05:43:14;97068.03;;;4.27;56.42
40285;BME280;25997;50.214;19.354;2023-12-20T05:46:16;97064.19;;;4.16;56.30
40285;BME280;25997;50.214;19.354;2023-12-20T05:49:19;97063.53;;;3.98;57.64
40285;BME280;25997;50.214;19.354;2023-12-20T05:52:22;97067.41;;;4.34;55.71
40285;BME280;25997;50.214;19.354;2023-12-20T05:55:26;97063.63;;;4.25;57.14
40285;BME280;25997;50.214;19.354;2023-12-20T05:58:29;97066.81;;;3.92;58.49
40285;BME280;25997;50.214;19.354;2023-12-20T06:01:31;97069.97;;;3.84;59.00
40285;BME280;25997;50.214;19.354;2023-12-20T06:04:33;97077.13;;;4.14;57.07
40285;BME280;25997;50.214;19.354;2023-12-20T06:07:36;97075.91;;;4.29;56.30
40285;BME280;25997;50.214;19.354;2023-12-20T06:10:40;97077.13;;;4.14;57.26
40285;BME280;25997;50.214;19.354;2023-12-20T06:13:42;97078.94;;;4.17;57.34
40285;BME280;25997;50.214;19.354;2023-12-20T06:16:45;97074.69;;;4.19;57.24
40285;BME280;25997;50.214;19.354;2023-12-20T06:19:47;97076.69;;;4.26;56.64
40285;BME280;25997;50.214;19.354;2023-12-20T06:22:50;97072.06;;;4.17;57.59
40285;BME280;25997;50.214;19.354;2023-12-20T06:25:54;97084.56;;;4.29;56.51
40285;BME280;25997;50.214;19.354;2023-12-20T06:28:56;97079.84;;;4.43;56.31
40285;BME280;25997;50.214;19.354;2023-12-20T06:31:58;97079.63;;;4.37;56.40
40285;BME280;25997;50.214;19.354;2023-12-20T06:35:01;97078.94;;;4.42;56.23
40285;BME280;25997;50.214;19.354;2023-12-20T06:38:03;97072.03;;;4.43;56.78
40285;BME280;25997;50.214;19.354;2023-12-20T06:41:07;97079.84;;;4.17;58.10
40285;BME280;25997;50.214;19.354;2023-12-20T06:44:09;97086.47;;;4.33;56.67
40285;BME280;25997;50.214;19.354;2023-12-20T06:47:12;97092.19;;;4.25;57.96
40285;BME280;25997;50.214;19.354;2023-12-20T06:50:15;97089.53;;;4.23;57.62
40285;BME280;25997;50.214;19.354;2023-12-20T06:53:18;97097.50;;;4.28;58.20
40285;BME280;25997;50.214;19.354;2023-12-20T06:56:21;97099.50;;;4.35;57.55
40285;BME280;25997;50.214;19.354;2023-12-20T06:59:24;97086.84;;;4.20;58.03
40285;BME280;25997;50.214;19.354;2023-12-20T07:02:26;97101.44;;;4.16;58.21
40285;BME280;25997;50.214;19.354;2023-12-20T07:05:31;97101.56;;;4.19;58.88
40285;BME280;25997;50.214;19.354;2023-12-20T07:08:34;97100.72;;;4.20;58.40
40285;BME280;25997;50.214;19.354;2023-12-20T07:11:37;97099.41;;;4.08;59.24
40285;BME280;25997;50.214;19.354;2023-12-20T07:14:40;97103.38;;;4.22;58.27
40285;BME280;25997;50.214;19.354;2023-12-20T07:17:42;97096.19;;;4.15;58.78
40285;BME280;25997;50.214;19.354;2023-12-20T07:20:45;97097.38;;;3.99;58.99
40285;BME280;25997;50.214;19.354;2023-12-20T07:23:48;97110.22;;;3.96;59.04
40285;BME280;25997;50.214;19.354;2023-12-20T07:26:52;97103.94;;;3.90;59.86
40285;BME280;25997;50.214;19.354;2023-12-20T07:29:54;97116.09;;;3.91;59.57
40285;BME280;25997;50.214;19.354;2023-12-20T07:32:56;97109.41;;;3.97;59.29
40285;BME280;25997;50.214;19.354;2023-12-20T07:35:59;97109.72;;;3.83;60.18
40285;BME280;25997;50.214;19.354;2023-12-20T07:39:02;97110.44;;;3.79;60.19
40285;BME280;25997;50.214;19.354;2023-12-20T07:42:06;97114.16;;;3.85;60.22
40285;BME280;25997;50.214;19.354;2023-12-20T07:45:08;97119.38;;;3.87;59.96
40285;BME280;25997;50.214;19.354;2023-12-20T07:48:11;97110.91;;;3.91;59.67
40285;BME280;25997;50.214;19.354;2023-12-20T07:51:14;97104.34;;;3.78;60.44
40285;BME280;25997;50.214;19.354;2023-12-20T07:54:17;97122.59;;;3.80;60.40
40285;BME280;25997;50.214;19.354;2023-12-20T07:57:20;97108.06;;;3.61;61.08
40285;BME280;25997;50.214;19.354;2023-12-20T08:00:23;97109.50;;;3.77;60.21
40285;BME280;25997;50.214;19.354;2023-12-20T08:03:25;97116.63;;;3.82;60.30
40285;BME280;25997;50.214;19.354;2023-12-20T08:06:28;97125.69;;;3.70;60.98
40285;BME280;25997;50.214;19.354;2023-12-20T08:09:30;97116.47;;;3.56;61.32
40285;BME280;25997;50.214;19.354;2023-12-20T08:12:34;97118.25;;;3.57;60.99
40285;BME280;25997;50.214;19.354;2023-12-20T08:15:36;97119.78;;;3.52;61.15
40285;BME280;25997;50.214;19.354;2023-12-20T08:18:39;97121.91;;;3.62;60.71
40285;BME280;25997;50.214;19.354;2023-12-20T08:21:41;97121.44;;;3.27;62.28
40285;BME280;25997;50.214;19.354;2023-12-20T08:24:44;97114.91;;;3.59;61.14
40285;BME280;25997;50.214;19.354;2023-12-20T08:27:47;97100.91;;;3.56;61.30
40285;BME280;25997;50.214;19.354;2023-12-20T08:30:50;97112.50;;;3.41;61.99
40285;BME280;25997;50.214;19.354;2023-12-20T08:33:54;97111.94;;;3.50;61.32
40285;BME280;25997;50.214;19.354;2023-12-20T08:36:57;97108.22;;;3.66;60.65
40285;BME280;25997;50.214;19.354;2023-12-20T08:39:59;97114.78;;;3.56;61.34
40285;BME280;25997;50.214;19.354;2023-12-20T08:43:03;97110.06;;;3.68;60.80
40285;BME280;25997;50.214;19.354;2023-12-20T08:46:06;97113.47;;;3.67;60.96
40285;BME280;25997;50.214;19.354;2023-12-20T08:49:10;97126.16;;;3.60;61.25
40285;BME280;25997;50.214;19.354;2023-12-20T08:52:12;97123.03;;;3.68;60.90
40285;BME280;25997;50.214;19.354;2023-12-20T08:55:15;97133.97;;;3.37;62.38
40285;BME280;25997;50.214;19.354;2023-12-20T08:58:20;97131.59;;;3.66;61.23
40285;BME280;25997;50.214;19.354;2023-12-20T09:01:22;97128.84;;;3.63;61.29
40285;BME280;25997;50.214;19.354;2023-12-20T09:04:25;97150.66;;;3.44;62.29
40285;BME280;25997;50.214;19.354;2023-12-20T09:07:28;97117.75;;;3.67;61.59
40285;BME280;25997;50.214;19.354;2023-12-20T09:10:31;97119.88;;;3.77;61.00
40285;BME280;25997;50.214;19.354;2023-12-20T09:13:35;97112.91;;;3.76;61.09
40285;BME280;25997;50.214;19.354;2023-12-20T09:16:38;97123.63;;;3.85;61.00
40285;BME280;25997;50.214;19.354;2023-12-20T09:19:40;97127.22;;;3.42;62.64
40285;BME280;25997;50.214;19.354;2023-12-20T09:22:43;97111.72;;;3.66;62.10
40285;BME280;25997;50.214;19.354;2023-12-20T09:25:45;97117.72;;;3.89;60.98
40285;BME280;25997;50.214;19.354;2023-12-20T09:28:49;97113.25;;;3.85;61.21
40285;BME280;25997;50.214;19.354;2023-12-20T09:31:51;97119.47;;;3.88;61.04
40285;BME280;25997;50.214;19.354;2023-12-20T09:34:54;97110.41;;;4.01;60.82
40285;BME280;25997;50.214;19.354;2023-12-20T09:37:56;97106.19;;;3.81;61.72
40285;BME280;25997;50.214;19.354;2023-12-20T09:40:59;97097.63;;;3.83;61.93
40285;BME280;25997;50.214;19.354;2023-12-20T09:44:05;97104.91;;;3.70;62.82
40285;BME280;25997;50.214;19.354;2023-12-20T09:47:08;97117.50;;;3.83;61.73
40285;BME280;25997;50.214;19.354;2023-12-20T09:50:11;97087.97;;;3.79;62.14
40285;BME280;25997;50.214;19.354;2023-12-20T09:53:15;97089.63;;;4.01;61.33
40285;BME280;25997;50.214;19.354;2023-12-20T09:56:18;97088.81;;;4.02;61.28
40285;BME280;25997;50.214;19.354;2023-12-20T09:59:22;97097.06;;;4.15;61.05
40285;BME280;25997;50.214;19.354;2023-12-20T10:02:25;97079.28;;;4.02;61.31
40285;BME280;25997;50.214;19.354;2023-12-20T10:05:29;97087.75;;;3.97;62.00
40285;BME280;25997;50.214;19.354;2023-12-20T10:08:32;97082.38;;;3.92;61.88
40285;BME280;25997;50.214;19.354;2023-12-20T10:11:35;97096.25;;;3.93;61.93
40285;BME280;25997;50.214;19.354;2023-12-20T10:14:40;97080.09;;;4.25;60.86
40285;BME280;25997;50.214;19.354;2023-12-20T10:17:42;97090.94;;;3.90;62.37
40285;BME280;25997;50.214;19.354;2023-12-20T10:20:45;97081.25;;;3.84;62.77
40285;BME280;25997;50.214;19.354;2023-12-20T10:23:47;97084.25;;;3.96;62.71
40285;BME280;25997;50.214;19.354;2023-12-20T10:27:01;97073.75;;;3.93;62.88
40285;BME280;25997;50.214;19.354;2023-12-20T10:30:07;97070.72;;;4.05;62.22
40285;BME280;25997;50.214;19.354;2023-12-20T10:33:10;97081.44;;;4.14;62.21
40285;BME280;25997;50.214;19.354;2023-12-20T10:36:13;97070.00;;;4.09;62.21
40285;BME280;25997;50.214;19.354;2023-12-20T10:39:15;97069.81;;;3.79;63.32
40285;BME280;25997;50.214;19.354;2023-12-20T10:42:21;97078.09;;;4.18;62.30
40285;BME280;25997;50.214;19.354;2023-12-20T10:45:25;97082.03;;;4.07;62.44
40285;BME280;25997;50.214;19.354;2023-12-20T10:48:28;97083.72;;;3.81;63.35
40285;BME280;25997;50.214;19.354;2023-12-20T10:51:33;97101.50;;;3.71;64.24
40285;BME280;25997;50.214;19.354;2023-12-20T10:54:36;97075.81;;;3.78;64.03
40285;BME280;25997;50.214;19.354;2023-12-20T10:57:39;97083.13;;;3.88;63.61
40285;BME280;25997;50.214;19.354;2023-12-20T11:00:45;97077.31;;;3.95;63.56
40285;BME280;25997;50.214;19.354;2023-12-20T11:03:51;97090.56;;;4.03;63.31
40285;BME280;25997;50.214;19.354;2023-12-20T11:06:58;97079.59;;;3.86;63.69
40285;BME280;25997;50.214;19.354;2023-12-20T11:10:14;97081.72;;;3.98;63.70
40285;BME280;25997;50.214;19.354;2023-12-20T11:13:21;97076.59;;;4.25;62.65
40285;BME280;25997;50.214;19.354;2023-12-20T11:16:26;97073.31;;;4.29;62.64
40285;BME280;25997;50.214;19.354;2023-12-20T11:19:28;97075.06;;;4.55;61.57
40285;BME280;25997;50.214;19.354;2023-12-20T11:22:31;97074.47;;;4.38;62.17
40285;BME280;25997;50.214;19.354;2023-12-20T11:25:47;97090.28;;;4.19;62.73
40285;BME280;25997;50.214;19.354;2023-12-20T11:28:50;97066.59;;;4.35;62.28
40285;BME280;25997;50.214;19.354;2023-12-20T11:31:54;97065.13;;;4.43;61.89
40285;BME280;25997;50.214;19.354;2023-12-20T11:34:58;97056.41;;;4.16;62.92
40285;BME280;25997;50.214;19.354;2023-12-20T11:38:01;97071.78;;;4.10;63.12
40285;BME280;25997;50.214;19.354;2023-12-20T11:41:05;97064.81;;;4.34;62.47
40285;BME280;25997;50.214;19.354;2023-12-20T11:44:08;97055.97;;;4.29;62.72
40285;BME280;25997;50.214;19.354;2023-12-20T11:47:14;97065.28;;;4.22;62.79
40285;BME280;25997;50.214;19.354;2023-12-20T11:50:20;97054.84;;;4.21;62.97
40285;BME280;25997;50.214;19.354;2023-12-20T11:53:23;97060.88;;;4.45;62.20
40285;BME280;25997;50.214;19.354;2023-12-20T11:56:25;97059.13;;;4.44;62.26
40285;BME280;25997;50.214;19.354;2023-12-20T11:59:28;97047.69;;;4.39;62.25
40285;BME280;25997;50.214;19.354;2023-12-20T12:02:32;97043.06;;;4.31;62.58
40285;BME280;25997;50.214;19.354;2023-12-20T12:05:35;97043.00;;;4.54;61.74
40285;BME280;25997;50.214;19.354;2023-12-20T12:08:37;97038.66;;;4.28;62.90
40285;BME280;25997;50.214;19.354;2023-12-20T12:11:40;97047.56;;;4.36;62.62
40285;BME280;25997;50.214;19.354;2023-12-20T12:14:42;97058.47;;;4.01;63.74
40285;BME280;25997;50.214;19.354;2023-12-20T12:17:54;97043.09;;;4.32;62.97
40285;BME280;25997;50.214;19.354;2023-12-20T12:21:00;97050.09;;;4.33;62.94
40285;BME280;25997;50.214;19.354;2023-12-20T12:24:07;97046.84;;;4.40;62.79
40285;BME280;25997;50.214;19.354;2023-12-20T12:27:11;97056.72;;;4.50;62.55
40285;BME280;25997;50.214;19.354;2023-12-20T12:30:16;97033.75;;;4.37;63.01
40285;BME280;25997;50.214;19.354;2023-12-20T12:33:20;97051.53;;;4.50;62.80
40285;BME280;25997;50.214;19.354;2023-12-20T12:36:23;97040.38;;;4.54;62.82
40285;BME280;25997;50.214;19.354;2023-12-20T12:39:25;97053.03;;;4.18;64.09
40285;BME280;25997;50.214;19.354;2023-12-20T12:42:28;97056.22;;;4.35;63.55
40285;BME280;25997;50.214;19.354;2023-12-20T12:45:30;97048.03;;;4.50;63.37
40285;BME280;25997;50.214;19.354;2023-12-20T12:48:35;97035.69;;;4.69;62.79
40285;BME280;25997;50.214;19.354;2023-12-20T12:51:37;97030.84;;;4.80;62.33
40285;BME280;25997;50.214;19.354;2023-12-20T12:54:40;97036.22;;;4.59;62.79
40285;BME280;25997;50.214;19.354;2023-12-20T12:57:43;97040.47;;;4.82;62.11
40285;BME280;25997;50.214;19.354;2023-12-20T13:00:45;97038.91;;;4.87;62.20
40285;BME280;25997;50.214;19.354;2023-12-20T13:03:49;97040.47;;;4.82;62.26
40285;BME280;25997;50.214;19.354;2023-12-20T13:06:52;97047.88;;;4.70;62.74
40285;BME280;25997;50.214;19.354;2023-12-20T13:09:54;97038.19;;;4.66;62.84
40285;BME280;25997;50.214;19.354;2023-12-20T13:12:57;97051.75;;;4.58;62.96
40285;BME280;25997;50.214;19.354;2023-12-20T13:15:59;97037.53;;;4.72;62.63
40285;BME280;25997;50.214;19.354;2023-12-20T13:19:03;97035.53;;;4.90;61.98
40285;BME280;25997;50.214;19.354;2023-12-20T13:22:06;97046.59;;;4.84;62.16
40285;BME280;25997;50.214;19.354;2023-12-20T13:25:08;97046.94;;;4.68;62.63
40285;BME280;25997;50.214;19.354;2023-12-20T13:28:10;97038.13;;;4.65;62.81
40285;BME280;25997;50.214;19.354;2023-12-20T13:31:13;97038.88;;;4.61;62.71
40285;BME280;25997;50.214;19.354;2023-12-20T13:34:17;97045.78;;;4.85;62.05
40285;BME280;25997;50.214;19.354;2023-12-20T13:37:20;97037.56;;;5.00;61.65
40285;BME280;25997;50.214;19.354;2023-12-20T13:40:22;97042.59;;;4.94;61.72
40285;BME280;25997;50.214;19.354;2023-12-20T13:43:27;97041.13;;;4.75;62.40
40285;BME280;25997;50.214;19.354;2023-12-20T13:46:29;97041.91;;;4.73;62.51
40285;BME280;25997;50.214;19.354;2023-12-20T13:49:33;97040.59;;;4.85;62.13
40285;BME280;25997;50.214;19.354;2023-12-20T13:52:36;97031.88;;;4.85;61.84
40285;BME280;25997;50.214;19.354;2023-12-20T13:55:38;97035.50;;;4.63;62.46
40285;BME280;25997;50.214;19.354;2023-12-20T13:58:41;97036.06;;;4.80;61.99
40285;BME280;25997;50.214;19.354;2023-12-20T14:01:43;97041.66;;;4.67;62.38
40285;BME280;25997;50.214;19.354;2023-12-20T14:04:47;97037.16;;;4.86;61.74
40285;BME280;25997;50.214;19.354;2023-12-20T14:07:50;97036.06;;;4.80;61.81
40285;BME280;25997;50.214;19.354;2023-12-20T14:10:52;97039.53;;;4.80;61.96
40285;BME280;25997;50.214;19.354;2023-12-20T14:13:55;97050.56;;;4.73;62.33
40285;BME280;25997;50.214;19.354;2023-12-20T14:16:59;97041.31;;;4.81;62.02
40285;BME280;25997;50.214;19.354;2023-12-20T14:20:03;97035.53;;;4.90;61.78
40285;BME280;25997;50.214;19.354;2023-12-20T14:23:05;97046.22;;;4.72;62.35
40285;BME280;25997;50.214;19.354;2023-12-20T14:26:08;97040.41;;;4.79;62.18
40285;BME280;25997;50.214;19.354;2023-12-20T14:29:15;97050.72;;;4.78;62.20
40285;BME280;25997;50.214;19.354;2023-12-20T14:32:17;97046.78;;;4.64;62.89
40285;BME280;25997;50.214;19.354;2023-12-20T14:35:21;97041.00;;;4.71;62.76
40285;BME280;25997;50.214;19.354;2023-12-20T14:38:23;97034.38;;;4.30;64.06
40285;BME280;25997;50.214;19.354;2023-12-20T14:41:26;97036.25;;;4.34;63.88
40285;BME280;25997;50.214;19.354;2023-12-20T14:44:29;97024.66;;;4.25;64.23
40285;BME280;25997;50.214;19.354;2023-12-20T14:47:31;97020.91;;;4.42;63.61
40285;BME280;25997;50.214;19.354;2023-12-20T14:50:35;97025.06;;;4.37;63.64
40285;BME280;25997;50.214;19.354;2023-12-20T14:53:37;97023.88;;;4.52;63.14
40285;BME280;25997;50.214;19.354;2023-12-20T14:56:40;97032.13;;;4.41;63.50
40285;BME280;25997;50.214;19.354;2023-12-20T14:59:43;97032.31;;;4.47;62.99
40285;BME280;25997;50.214;19.354;2023-12-20T15:02:45;97038.38;;;4.46;62.89
40285;BME280;25997;50.214;19.354;2023-12-20T15:05:49;97049.97;;;4.55;62.31
40285;BME280;25997;50.214;19.354;2023-12-20T15:08:52;97054.22;;;4.78;61.17
40285;BME280;25997;50.214;19.354;2023-12-20T15:11:54;97042.00;;;4.51;61.80
40285;BME280;25997;50.214;19.354;2023-12-20T15:14:56;97047.44;;;4.58;61.55
40285;BME280;25997;50.214;19.354;2023-12-20T15:17:59;97047.06;;;4.46;61.89
40285;BME280;25997;50.214;19.354;2023-12-20T15:21:03;97044.81;;;4.57;61.32
40285;BME280;25997;50.214;19.354;2023-12-20T15:24:06;97041.78;;;4.45;61.83
40285;BME280;25997;50.214;19.354;2023-12-20T15:27:15;97035.72;;;4.44;61.59
40285;BME280;25997;50.214;19.354;2023-12-20T15:30:17;97027.88;;;4.43;61.39
40285;BME280;25997;50.214;19.354;2023-12-20T15:33:20;97032.75;;;4.34;61.50
40285;BME280;25997;50.214;19.354;2023-12-20T15:36:24;97034.03;;;4.19;61.77
40285;BME280;25997;50.214;19.354;2023-12-20T15:39:26;97040.66;;;4.11;62.02
40285;BME280;25997;50.214;19.354;2023-12-20T15:42:29;97040.00;;;4.17;62.15
40285;BME280;25997;50.214;19.354;2023-12-20T15:45:32;97044.94;;;4.35;61.60
40285;BME280;25997;50.214;19.354;2023-12-20T15:48:35;97040.16;;;4.22;62.04
40285;BME280;25997;50.214;19.354;2023-12-20T15:51:39;97040.84;;;3.92;63.10
40285;BME280;25997;50.214;19.354;2023-12-20T15:54:41;97031.28;;;4.15;62.42
40285;BME280;25997;50.214;19.354;2023-12-20T15:57:43;97034.72;;;3.90;63.13
40285;BME280;25997;50.214;19.354;2023-12-20T16:00:46;97030.13;;;3.83;63.34
40285;BME280;25997;50.214;19.354;2023-12-20T16:03:49;97025.16;;;3.89;63.51
40285;BME280;25997;50.214;19.354;2023-12-20T16:06:54;97016.84;;;3.74;63.97
40285;BME280;25997;50.214;19.354;2023-12-20T16:09:56;97013.47;;;3.77;64.03